sensor_id;sensor_type;location;lat;lon;timestamp;temperature;humidity
11229;DHT22;5671;47.936;8.716;2022-10-04T00:01:02;4.40;83.20
11229;DHT22;5671;47.936;8.716;2022-10-04T00:03:33;4.40;83.20
11229;DHT22;5671;47.936;8.716;2022-10-04T00:06:01;4.30;83.40
11229;DHT22;5671;47.936;8.716;2022-10-04T00:08:35;4.30;82.40
11229;DHT22;5671;47.936;8.716;2022-10-04T00:11:05;4.30;82.40
11229;DHT22;5671;47.936;8.716;2022-10-04T00:13:34;4.30;82.20
11229;DHT22;5671;47.936;8.716;2022-10-04T00:16:04;4.20;82.10
11229;DHT22;5671;47.936;8.716;2022-10-04T00:18:38;4.20;81.90
11229;DHT22;5671;47.936;8.716;2022-10-04T00:21:06;4.20;82.00
11229;DHT22;5671;47.936;8.716;2022-10-04T00:23:42;4.10;82.20
11229;DHT22;5671;47.936;8.716;2022-10-04T00:28:56;4.00;81.40
11229;DHT22;5671;47.936;8.716;2022-10-04T00:31:24;4.00;81.40
11229;DHT22;5671;47.936;8.716;2022-10-04T00:33:56;4.00;81.60
11229;DHT22;5671;47.936;8.716;2022-10-04T00:36:36;3.90;81.20
11229;DHT22;5671;47.936;8.716;2022-10-04T00:39:38;3.90;80.90
11229;DHT22;5671;47.936;8.716;2022-10-04T00:42:28;3.80;81.40
11229;DHT22;5671;47.936;8.716;2022-10-04T00:45:00;3.80;82.20
11229;DHT22;5671;47.936;8.716;2022-10-04T00:47:31;3.80;82.40
11229;DHT22;5671;47.936;8.716;2022-10-04T00:50:09;3.70;82.70
11229;DHT22;5671;47.936;8.716;2022-10-04T00:52:43;3.80;82.90
11229;DHT22;5671;47.936;8.716;2022-10-04T00:55:19;3.70;83.10
11229;DHT22;5671;47.936;8.716;2022-10-04T00:57:51;3.70;83.90
11229;DHT22;5671;47.936;8.716;2022-10-04T01:00:20;3.70;83.90
11229;DHT22;5671;47.936;8.716;2022-10-04T01:02:51;3.70;84.10
11229;DHT22;5671;47.936;8.716;2022-10-04T01:05:24;3.70;84.00
11229;DHT22;5671;47.936;8.716;2022-10-04T01:07:56;3.70;84.50
11229;DHT22;5671;47.936;8.716;2022-10-04T01:10:26;3.70;84.00
11229;DHT22;5671;47.936;8.716;2022-10-04T01:13:00;3.70;83.50
11229;DHT22;5671;47.936;8.716;2022-10-04T01:15:35;3.70;83.70
11229;DHT22;5671;47.936;8.716;2022-10-04T01:18:11;3.70;83.50
11229;DHT22;5671;47.936;8.716;2022-10-04T01:20:49;3.70;83.60
11229;DHT22;5671;47.936;8.716;2022-10-04T01:23:32;3.70;83.60
11229;DHT22;5671;47.936;8.716;2022-10-04T01:26:00;3.70;84.10
11229;DHT22;5671;47.936;8.716;2022-10-04T01:28:35;3.70;84.00
11229;DHT22;5671;47.936;8.716;2022-10-04T01:31:03;3.70;84.10
11229;DHT22;5671;47.936;8.716;2022-10-04T01:33:30;3.70;85.30
11229;DHT22;5671;47.936;8.716;2022-10-04T01:35:57;3.70;85.90
11229;DHT22;5671;47.936;8.716;2022-10-04T01:38:24;3.70;85.00
11229;DHT22;5671;47.936;8.716;2022-10-04T01:40:54;3.70;85.10
11229;DHT22;5671;47.936;8.716;2022-10-04T01:43:28;3.70;84.90
11229;DHT22;5671;47.936;8.716;2022-10-04T01:45:59;3.70;84.30
11229;DHT22;5671;47.936;8.716;2022-10-04T01:48:35;3.70;84.50
11229;DHT22;5671;47.936;8.716;2022-10-04T01:51:06;3.70;85.50
11229;DHT22;5671;47.936;8.716;2022-10-04T01:53:40;3.70;86.10
11229;DHT22;5671;47.936;8.716;2022-10-04T01:56:13;3.70;85.90
11229;DHT22;5671;47.936;8.716;2022-10-04T01:58:43;3.70;86.00
11229;DHT22;5671;47.936;8.716;2022-10-04T02:01:13;3.70;85.90
11229;DHT22;5671;47.936;8.716;2022-10-04T02:03:44;3.70;85.90
11229;DHT22;5671;47.936;8.716;2022-10-04T02:06:15;3.70;86.50
11229;DHT22;5671;47.936;8.716;2022-10-04T02:08:46;3.70;86.50
11229;DHT22;5671;47.936;8.716;2022-10-04T02:11:18;3.70;87.10
11229;DHT22;5671;47.936;8.716;2022-10-04T02:13:50;3.70;86.90
11229;DHT22;5671;47.936;8.716;2022-10-04T02:16:19;3.70;87.00
11229;DHT22;5671;47.936;8.716;2022-10-04T02:18:49;3.70;86.30
11229;DHT22;5671;47.936;8.716;2022-10-04T02:21:18;3.70;86.30
11229;DHT22;5671;47.936;8.716;2022-10-04T02:23:46;3.70;86.50
11229;DHT22;5671;47.936;8.716;2022-10-04T02:26:13;3.70;86.50
11229;DHT22;5671;47.936;8.716;2022-10-04T02:28:41;3.70;86.80
11229;DHT22;5671;47.936;8.716;2022-10-04T02:31:09;3.70;86.50
11229;DHT22;5671;47.936;8.716;2022-10-04T02:33:56;3.70;86.50
11229;DHT22;5671;47.936;8.716;2022-10-04T02:36:25;3.70;86.60
11229;DHT22;5671;47.936;8.716;2022-10-04T02:38:57;3.70;86.30
11229;DHT22;5671;47.936;8.716;2022-10-04T02:41:29;3.70;86.30
11229;DHT22;5671;47.936;8.716;2022-10-04T02:44:03;3.70;85.90
11229;DHT22;5671;47.936;8.716;2022-10-04T02:46:37;3.70;86.20
11229;DHT22;5671;47.936;8.716;2022-10-04T02:49:14;3.70;86.10
11229;DHT22;5671;47.936;8.716;2022-10-04T02:51:49;3.70;86.10
11229;DHT22;5671;47.936;8.716;2022-10-04T02:54:26;3.70;86.40
11229;DHT22;5671;47.936;8.716;2022-10-04T02:56:54;3.70;86.70
11229;DHT22;5671;47.936;8.716;2022-10-04T02:59:24;3.70;86.50
11229;DHT22;5671;47.936;8.716;2022-10-04T03:01:52;3.70;85.70
11229;DHT22;5671;47.936;8.716;2022-10-04T03:04:23;3.70;85.60
11229;DHT22;5671;47.936;8.716;2022-10-04T03:06:50;3.70;85.90
11229;DHT22;5671;47.936;8.716;2022-10-04T03:09:19;3.70;86.80
11229;DHT22;5671;47.936;8.716;2022-10-04T03:11:48;3.70;87.10
11229;DHT22;5671;47.936;8.716;2022-10-04T03:14:18;3.70;86.00
11229;DHT22;5671;47.936;8.716;2022-10-04T03:16:49;3.70;85.80
11229;DHT22;5671;47.936;8.716;2022-10-04T03:19:19;3.70;86.50
11229;DHT22;5671;47.936;8.716;2022-10-04T03:21:50;3.70;86.80
11229;DHT22;5671;47.936;8.716;2022-10-04T03:24:22;3.70;87.20
11229;DHT22;5671;47.936;8.716;2022-10-04T03:26:53;3.70;87.10
11229;DHT22;5671;47.936;8.716;2022-10-04T03:29:22;3.70;87.30
11229;DHT22;5671;47.936;8.716;2022-10-04T03:31:52;3.70;87.50
11229;DHT22;5671;47.936;8.716;2022-10-04T03:34:24;3.80;87.30
11229;DHT22;5671;47.936;8.716;2022-10-04T03:36:52;3.80;86.90
11229;DHT22;5671;47.936;8.716;2022-10-04T03:39:26;3.80;86.90
11229;DHT22;5671;47.936;8.716;2022-10-04T03:41:54;3.80;87.30
11229;DHT22;5671;47.936;8.716;2022-10-04T03:44:23;3.80;87.30
11229;DHT22;5671;47.936;8.716;2022-10-04T03:46:52;3.80;87.10
11229;DHT22;5671;47.936;8.716;2022-10-04T03:49:29;3.80;86.60
11229;DHT22;5671;47.936;8.716;2022-10-04T03:51:58;3.80;86.50
11229;DHT22;5671;47.936;8.716;2022-10-04T03:54:25;3.80;86.70
11229;DHT22;5671;47.936;8.716;2022-10-04T03:56:54;3.80;86.50
11229;DHT22;5671;47.936;8.716;2022-10-04T03:59:23;3.80;86.30
11229;DHT22;5671;47.936;8.716;2022-10-04T04:02:05;3.80;86.00
11229;DHT22;5671;47.936;8.716;2022-10-04T04:04:41;3.80;85.70
11229;DHT22;5671;47.936;8.716;2022-10-04T04:07:13;3.80;85.70
11229;DHT22;5671;47.936;8.716;2022-10-04T04:09:44;3.70;85.90
11229;DHT22;5671;47.936;8.716;2022-10-04T04:12:16;3.70;86.10
11229;DHT22;5671;47.936;8.716;2022-10-04T04:14:45;3.70;86.00
11229;DHT22;5671;47.936;8.716;2022-10-04T04:17:32;3.70;85.60
11229;DHT22;5671;47.936;8.716;2022-10-04T04:20:05;3.70;85.60
11229;DHT22;5671;47.936;8.716;2022-10-04T04:22:34;3.70;85.50
11229;DHT22;5671;47.936;8.716;2022-10-04T04:25:06;3.70;85.50
11229;DHT22;5671;47.936;8.716;2022-10-04T04:27:36;3.60;85.60
11229;DHT22;5671;47.936;8.716;2022-10-04T04:30:06;3.60;85.30
11229;DHT22;5671;47.936;8.716;2022-10-04T04:32:37;3.60;85.00
11229;DHT22;5671;47.936;8.716;2022-10-04T04:35:19;3.60;86.10
11229;DHT22;5671;47.936;8.716;2022-10-04T04:38:01;3.60;86.20
11229;DHT22;5671;47.936;8.716;2022-10-04T04:40:28;3.60;86.00
11229;DHT22;5671;47.936;8.716;2022-10-04T04:42:57;3.60;85.70
11229;DHT22;5671;47.936;8.716;2022-10-04T04:45:27;3.60;84.50
11229;DHT22;5671;47.936;8.716;2022-10-04T04:47:57;3.60;84.00
11229;DHT22;5671;47.936;8.716;2022-10-04T04:50:28;3.60;84.10
11229;DHT22;5671;47.936;8.716;2022-10-04T04:52:59;3.50;84.20
11229;DHT22;5671;47.936;8.716;2022-10-04T04:55:31;3.50;84.60
11229;DHT22;5671;47.936;8.716;2022-10-04T04:57:58;3.50;84.70
11229;DHT22;5671;47.936;8.716;2022-10-04T05:00:29;3.50;85.20
11229;DHT22;5671;47.936;8.716;2022-10-04T05:03:00;3.40;84.60
11229;DHT22;5671;47.936;8.716;2022-10-04T05:05:28;3.40;84.30
11229;DHT22;5671;47.936;8.716;2022-10-04T05:08:13;3.40;84.30
11229;DHT22;5671;47.936;8.716;2022-10-04T05:10:45;3.40;84.10
11229;DHT22;5671;47.936;8.716;2022-10-04T05:13:15;3.30;84.60
11229;DHT22;5671;47.936;8.716;2022-10-04T05:15:44;3.30;85.00
11229;DHT22;5671;47.936;8.716;2022-10-04T05:18:27;3.30;85.30
11229;DHT22;5671;47.936;8.716;2022-10-04T05:20:58;3.20;85.20
11229;DHT22;5671;47.936;8.716;2022-10-04T05:23:28;3.20;84.60
11229;DHT22;5671;47.936;8.716;2022-10-04T05:25:56;3.20;84.10
11229;DHT22;5671;47.936;8.716;2022-10-04T05:28:27;3.20;84.20
11229;DHT22;5671;47.936;8.716;2022-10-04T05:31:25;3.20;83.90
11229;DHT22;5671;47.936;8.716;2022-10-04T05:33:57;3.10;83.70
11229;DHT22;5671;47.936;8.716;2022-10-04T05:36:57;3.10;83.70
11229;DHT22;5671;47.936;8.716;2022-10-04T05:39:30;3.10;83.70
11229;DHT22;5671;47.936;8.716;2022-10-04T05:42:04;3.10;84.10
11229;DHT22;5671;47.936;8.716;2022-10-04T05:44:45;3.00;84.80
11229;DHT22;5671;47.936;8.716;2022-10-04T05:47:15;3.00;84.70
11229;DHT22;5671;47.936;8.716;2022-10-04T05:49:51;3.00;84.20
11229;DHT22;5671;47.936;8.716;2022-10-04T05:52:26;3.00;85.00
11229;DHT22;5671;47.936;8.716;2022-10-04T05:55:20;3.00;85.70
11229;DHT22;5671;47.936;8.716;2022-10-04T06:00:52;3.00;86.70
11229;DHT22;5671;47.936;8.716;2022-10-04T06:03:45;3.00;86.70
11229;DHT22;5671;47.936;8.716;2022-10-04T06:06:20;3.00;86.60
11229;DHT22;5671;47.936;8.716;2022-10-04T06:09:03;3.00;86.40
11229;DHT22;5671;47.936;8.716;2022-10-04T06:11:42;3.00;86.20
11229;DHT22;5671;47.936;8.716;2022-10-04T06:14:53;3.10;86.80
11229;DHT22;5671;47.936;8.716;2022-10-04T06:17:40;3.10;86.60
11229;DHT22;5671;47.936;8.716;2022-10-04T06:20:26;3.10;86.70
11229;DHT22;5671;47.936;8.716;2022-10-04T06:23:01;3.10;87.00
11229;DHT22;5671;47.936;8.716;2022-10-04T06:25:36;3.10;86.40
11229;DHT22;5671;47.936;8.716;2022-10-04T06:28:13;3.10;86.50
11229;DHT22;5671;47.936;8.716;2022-10-04T06:36:53;3.20;86.40
11229;DHT22;5671;47.936;8.716;2022-10-04T06:39:41;3.20;85.70
11229;DHT22;5671;47.936;8.716;2022-10-04T06:42:27;3.30;85.90
11229;DHT22;5671;47.936;8.716;2022-10-04T06:45:09;3.30;86.30
11229;DHT22;5671;47.936;8.716;2022-10-04T06:47:59;3.30;85.80
11229;DHT22;5671;47.936;8.716;2022-10-04T06:50:36;3.30;85.60
11229;DHT22;5671;47.936;8.716;2022-10-04T06:53:17;3.30;85.70
11229;DHT22;5671;47.936;8.716;2022-10-04T06:56:11;3.30;86.10
11229;DHT22;5671;47.936;8.716;2022-10-04T06:59:05;3.40;86.20
11229;DHT22;5671;47.936;8.716;2022-10-04T07:01:47;3.40;86.00
11229;DHT22;5671;47.936;8.716;2022-10-04T07:04:30;3.50;86.70
11229;DHT22;5671;47.936;8.716;2022-10-04T07:07:13;3.50;87.00
11229;DHT22;5671;47.936;8.716;2022-10-04T07:09:54;3.50;87.30
11229;DHT22;5671;47.936;8.716;2022-10-04T07:12:24;3.60;87.40
11229;DHT22;5671;47.936;8.716;2022-10-04T07:14:57;3.60;87.10
11229;DHT22;5671;47.936;8.716;2022-10-04T07:17:29;3.70;87.30
11229;DHT22;5671;47.936;8.716;2022-10-04T07:19:59;3.80;86.90
11229;DHT22;5671;47.936;8.716;2022-10-04T07:22:29;3.80;86.50
11229;DHT22;5671;47.936;8.716;2022-10-04T07:25:06;3.80;87.10
11229;DHT22;5671;47.936;8.716;2022-10-04T07:27:47;3.90;87.00
11229;DHT22;5671;47.936;8.716;2022-10-04T07:30:38;4.00;87.60
11229;DHT22;5671;47.936;8.716;2022-10-04T07:33:08;4.10;88.00
11229;DHT22;5671;47.936;8.716;2022-10-04T07:35:43;4.20;88.00
11229;DHT22;5671;47.936;8.716;2022-10-04T07:38:17;4.30;88.10
11229;DHT22;5671;47.936;8.716;2022-10-04T07:40:57;4.40;88.30
11229;DHT22;5671;47.936;8.716;2022-10-04T07:43:30;4.50;89.10
11229;DHT22;5671;47.936;8.716;2022-10-04T07:46:05;4.60;89.60
11229;DHT22;5671;47.936;8.716;2022-10-04T07:48:39;4.80;89.70
11229;DHT22;5671;47.936;8.716;2022-10-04T07:51:18;4.90;89.50
11229;DHT22;5671;47.936;8.716;2022-10-04T07:53:48;5.00;89.50
11229;DHT22;5671;47.936;8.716;2022-10-04T07:56:22;5.20;89.50
11229;DHT22;5671;47.936;8.716;2022-10-04T07:58:59;5.30;89.40
11229;DHT22;5671;47.936;8.716;2022-10-04T08:01:33;5.40;89.10
11229;DHT22;5671;47.936;8.716;2022-10-04T08:04:13;5.50;88.90
11229;DHT22;5671;47.936;8.716;2022-10-04T08:06:54;5.70;89.00
11229;DHT22;5671;47.936;8.716;2022-10-04T08:09:30;5.80;88.80
11229;DHT22;5671;47.936;8.716;2022-10-04T08:12:06;5.90;88.50
11229;DHT22;5671;47.936;8.716;2022-10-04T08:14:54;6.10;88.40
11229;DHT22;5671;47.936;8.716;2022-10-04T08:17:36;6.20;88.30
11229;DHT22;5671;47.936;8.716;2022-10-04T08:20:20;6.30;87.80
11229;DHT22;5671;47.936;8.716;2022-10-04T08:23:00;6.50;87.90
11229;DHT22;5671;47.936;8.716;2022-10-04T08:25:36;6.60;87.60
11229;DHT22;5671;47.936;8.716;2022-10-04T08:28:14;6.70;87.90
11229;DHT22;5671;47.936;8.716;2022-10-04T08:31:14;6.80;88.00
11229;DHT22;5671;47.936;8.716;2022-10-04T08:34:05;7.00;87.90
11229;DHT22;5671;47.936;8.716;2022-10-04T08:36:47;7.10;87.50
11229;DHT22;5671;47.936;8.716;2022-10-04T08:39:28;7.20;87.30
11229;DHT22;5671;47.936;8.716;2022-10-04T08:42:22;7.40;87.40
11229;DHT22;5671;47.936;8.716;2022-10-04T08:45:14;7.50;87.20
11229;DHT22;5671;47.936;8.716;2022-10-04T08:48:02;7.60;87.50
11229;DHT22;5671;47.936;8.716;2022-10-04T08:54:10;8.00;87.90
11229;DHT22;5671;47.936;8.716;2022-10-04T08:57:03;8.20;88.00
11229;DHT22;5671;47.936;8.716;2022-10-04T08:59:50;8.40;87.80
11229;DHT22;5671;47.936;8.716;2022-10-04T09:05:43;8.80;85.20
11229;DHT22;5671;47.936;8.716;2022-10-04T09:17:19;9.60;83.90
11229;DHT22;5671;47.936;8.716;2022-10-04T09:19:54;9.80;82.90
11229;DHT22;5671;47.936;8.716;2022-10-04T09:22:41;10.00;82.10
11229;DHT22;5671;47.936;8.716;2022-10-04T09:25:48;10.10;81.80
11229;DHT22;5671;47.936;8.716;2022-10-04T09:31:53;10.50;81.00
11229;DHT22;5671;47.936;8.716;2022-10-04T09:34:36;10.70;80.90
11229;DHT22;5671;47.936;8.716;2022-10-04T09:37:35;10.80;80.70
11229;DHT22;5671;47.936;8.716;2022-10-04T09:40:33;11.00;80.10
11229;DHT22;5671;47.936;8.716;2022-10-04T09:46:16;11.30;79.00
11229;DHT22;5671;47.936;8.716;2022-10-04T09:48:53;11.40;76.90
11229;DHT22;5671;47.936;8.716;2022-10-04T09:51:35;11.60;77.70
11229;DHT22;5671;47.936;8.716;2022-10-04T09:54:37;11.70;77.10
11229;DHT22;5671;47.936;8.716;2022-10-04T09:57:20;11.80;77.10
11229;DHT22;5671;47.936;8.716;2022-10-04T10:00:11;12.10;75.80
11229;DHT22;5671;47.936;8.716;2022-10-04T10:03:06;12.30;75.20
11229;DHT22;5671;47.936;8.716;2022-10-04T10:05:47;12.60;75.50
11229;DHT22;5671;47.936;8.716;2022-10-04T10:08:25;13.10;73.80
11229;DHT22;5671;47.936;8.716;2022-10-04T10:11:01;13.50;72.50
11229;DHT22;5671;47.936;8.716;2022-10-04T10:16:58;14.70;68.40
11229;DHT22;5671;47.936;8.716;2022-10-04T10:19:38;15.20;67.00
11229;DHT22;5671;47.936;8.716;2022-10-04T10:22:21;15.70;64.40
11229;DHT22;5671;47.936;8.716;2022-10-04T10:25:10;16.10;63.70
11229;DHT22;5671;47.936;8.716;2022-10-04T10:28:02;16.50;63.30
11229;DHT22;5671;47.936;8.716;2022-10-04T10:30:36;16.80;61.80
11229;DHT22;5671;47.936;8.716;2022-10-04T10:33:34;17.10;60.80
11229;DHT22;5671;47.936;8.716;2022-10-04T10:36:22;17.40;59.20
11229;DHT22;5671;47.936;8.716;2022-10-04T10:39:13;17.70;58.30
11229;DHT22;5671;47.936;8.716;2022-10-04T10:41:53;17.90;58.70
11229;DHT22;5671;47.936;8.716;2022-10-04T10:44:39;18.10;57.80
11229;DHT22;5671;47.936;8.716;2022-10-04T10:47:25;18.00;56.40
11229;DHT22;5671;47.936;8.716;2022-10-04T10:50:13;18.00;56.70
11229;DHT22;5671;47.936;8.716;2022-10-04T10:53:18;18.10;55.20
11229;DHT22;5671;47.936;8.716;2022-10-04T10:56:24;18.00;57.00
11229;DHT22;5671;47.936;8.716;2022-10-04T10:59:46;17.90;56.70
11229;DHT22;5671;47.936;8.716;2022-10-04T11:08:33;17.50;57.40
11229;DHT22;5671;47.936;8.716;2022-10-04T11:11:15;17.60;58.20
11229;DHT22;5671;47.936;8.716;2022-10-04T11:23:36;18.20;56.40
11229;DHT22;5671;47.936;8.716;2022-10-04T11:26:43;18.60;56.50
11229;DHT22;5671;47.936;8.716;2022-10-04T11:29:27;19.20;55.30
11229;DHT22;5671;47.936;8.716;2022-10-04T11:32:24;19.40;54.10
11229;DHT22;5671;47.936;8.716;2022-10-04T11:35:33;19.70;54.10
11229;DHT22;5671;47.936;8.716;2022-10-04T11:38:09;20.00;52.20
11229;DHT22;5671;47.936;8.716;2022-10-04T11:40:54;20.10;51.70
11229;DHT22;5671;47.936;8.716;2022-10-04T11:43:53;20.20;51.60
11229;DHT22;5671;47.936;8.716;2022-10-04T11:46:36;20.20;51.30
11229;DHT22;5671;47.936;8.716;2022-10-04T11:49:21;20.10;51.40
11229;DHT22;5671;47.936;8.716;2022-10-04T11:52:03;20.40;53.50
11229;DHT22;5671;47.936;8.716;2022-10-04T11:54:48;20.60;50.00
11229;DHT22;5671;47.936;8.716;2022-10-04T11:57:28;20.80;50.10
11229;DHT22;5671;47.936;8.716;2022-10-04T12:00:03;21.10;50.00
11229;DHT22;5671;47.936;8.716;2022-10-04T12:03:00;21.20;49.20
11229;DHT22;5671;47.936;8.716;2022-10-04T12:05:45;21.40;49.20
11229;DHT22;5671;47.936;8.716;2022-10-04T12:08:30;21.70;48.60
11229;DHT22;5671;47.936;8.716;2022-10-04T12:11:20;22.00;48.70
11229;DHT22;5671;47.936;8.716;2022-10-04T12:14:03;22.30;47.50
11229;DHT22;5671;47.936;8.716;2022-10-04T12:20:13;22.50;47.70
11229;DHT22;5671;47.936;8.716;2022-10-04T12:22:58;22.80;44.90
11229;DHT22;5671;47.936;8.716;2022-10-04T12:25:48;22.90;46.00
11229;DHT22;5671;47.936;8.716;2022-10-04T12:28:45;23.10;46.90
11229;DHT22;5671;47.936;8.716;2022-10-04T12:31:24;23.10;46.10
11229;DHT22;5671;47.936;8.716;2022-10-04T12:34:14;23.10;45.50
11229;DHT22;5671;47.936;8.716;2022-10-04T12:37:06;23.20;46.90
11229;DHT22;5671;47.936;8.716;2022-10-04T12:39:57;23.40;47.10
11229;DHT22;5671;47.936;8.716;2022-10-04T12:42:37;23.70;47.60
11229;DHT22;5671;47.936;8.716;2022-10-04T12:45:32;23.80;45.70
11229;DHT22;5671;47.936;8.716;2022-10-04T12:48:40;24.00;45.90
11229;DHT22;5671;47.936;8.716;2022-10-04T12:51:44;24.00;45.70
11229;DHT22;5671;47.936;8.716;2022-10-04T12:54:37;24.00;44.10
11229;DHT22;5671;47.936;8.716;2022-10-04T12:57:43;24.10;43.80
11229;DHT22;5671;47.936;8.716;2022-10-04T13:00:48;24.20;44.10
11229;DHT22;5671;47.936;8.716;2022-10-04T13:03:34;24.20;44.60
11229;DHT22;5671;47.936;8.716;2022-10-04T13:06:17;24.20;44.40
11229;DHT22;5671;47.936;8.716;2022-10-04T13:08:59;24.10;43.60
11229;DHT22;5671;47.936;8.716;2022-10-04T13:11:59;24.10;45.40
11229;DHT22;5671;47.936;8.716;2022-10-04T13:17:47;24.30;44.10
11229;DHT22;5671;47.936;8.716;2022-10-04T13:20:36;24.50;44.50
11229;DHT22;5671;47.936;8.716;2022-10-04T13:23:16;24.70;45.60
11229;DHT22;5671;47.936;8.716;2022-10-04T13:40:51;25.80;42.80
11229;DHT22;5671;47.936;8.716;2022-10-04T13:46:18;25.90;43.80
11229;DHT22;5671;47.936;8.716;2022-10-04T13:48:56;26.00;42.40
11229;DHT22;5671;47.936;8.716;2022-10-04T13:52:03;26.00;42.80
11229;DHT22;5671;47.936;8.716;2022-10-04T13:54:53;26.10;41.80
11229;DHT22;5671;47.936;8.716;2022-10-04T13:58:14;26.20;42.30
11229;DHT22;5671;47.936;8.716;2022-10-04T14:01:11;26.30;42.70
11229;DHT22;5671;47.936;8.716;2022-10-04T14:03:57;26.20;41.90
11229;DHT22;5671;47.936;8.716;2022-10-04T14:23:09;26.00;42.30
11229;DHT22;5671;47.936;8.716;2022-10-04T14:32:16;24.30;43.90
11229;DHT22;5671;47.936;8.716;2022-10-04T14:34:58;23.70;44.60
11229;DHT22;5671;47.936;8.716;2022-10-04T14:37:55;23.20;45.20
11229;DHT22;5671;47.936;8.716;2022-10-04T14:44:15;22.10;47.20
11229;DHT22;5671;47.936;8.716;2022-10-04T14:47:03;21.50;48.60
11229;DHT22;5671;47.936;8.716;2022-10-04T14:52:49;20.70;50.60
11229;DHT22;5671;47.936;8.716;2022-10-04T15:16:11;18.40;56.10
11229;DHT22;5671;47.936;8.716;2022-10-04T15:18:57;18.20;57.20
11229;DHT22;5671;47.936;8.716;2022-10-04T15:24:50;17.70;58.10
11229;DHT22;5671;47.936;8.716;2022-10-04T15:27:49;17.50;58.40
11229;DHT22;5671;47.936;8.716;2022-10-04T15:30:33;17.40;58.80
11229;DHT22;5671;47.936;8.716;2022-10-04T15:33:35;17.20;59.40
11229;DHT22;5671;47.936;8.716;2022-10-04T15:42:36;16.70;61.40
11229;DHT22;5671;47.936;8.716;2022-10-04T15:56:22;16.10;63.60
11229;DHT22;5671;47.936;8.716;2022-10-04T15:59:25;16.00;64.30
11229;DHT22;5671;47.936;8.716;2022-10-04T16:19:52;15.30;65.70
11229;DHT22;5671;47.936;8.716;2022-10-04T16:25:38;15.10;66.20
11229;DHT22;5671;47.936;8.716;2022-10-04T16:28:21;14.90;67.00
11229;DHT22;5671;47.936;8.716;2022-10-04T16:31:23;14.90;67.20
11229;DHT22;5671;47.936;8.716;2022-10-04T16:33:57;14.80;67.30
11229;DHT22;5671;47.936;8.716;2022-10-04T16:36:45;14.60;67.60
11229;DHT22;5671;47.936;8.716;2022-10-04T16:39:48;14.60;68.60
11229;DHT22;5671;47.936;8.716;2022-10-04T16:42:55;14.50;68.90
11229;DHT22;5671;47.936;8.716;2022-10-04T16:46:17;14.40;69.20
11229;DHT22;5671;47.936;8.716;2022-10-04T16:49:25;14.30;69.90
11229;DHT22;5671;47.936;8.716;2022-10-04T16:52:40;14.10;69.90
11229;DHT22;5671;47.936;8.716;2022-10-04T16:55:32;14.00;69.70
11229;DHT22;5671;47.936;8.716;2022-10-04T16:58:43;13.90;70.30
11229;DHT22;5671;47.936;8.716;2022-10-04T17:01:40;13.80;70.50
11229;DHT22;5671;47.936;8.716;2022-10-04T17:04:32;13.70;70.90
11229;DHT22;5671;47.936;8.716;2022-10-04T17:07:13;13.60;70.90
11229;DHT22;5671;47.936;8.716;2022-10-04T17:10:30;13.50;70.90
11229;DHT22;5671;47.936;8.716;2022-10-04T17:13:21;13.30;71.40
11229;DHT22;5671;47.936;8.716;2022-10-04T17:16:44;13.20;70.80
11229;DHT22;5671;47.936;8.716;2022-10-04T17:19:19;13.10;71.80
11229;DHT22;5671;47.936;8.716;2022-10-04T17:21:57;13.00;71.70
11229;DHT22;5671;47.936;8.716;2022-10-04T17:27:52;12.80;72.80
11229;DHT22;5671;47.936;8.716;2022-10-04T17:30:40;12.60;73.10
11229;DHT22;5671;47.936;8.716;2022-10-04T17:33:20;12.50;72.70
11229;DHT22;5671;47.936;8.716;2022-10-04T17:36:07;12.30;73.00
11229;DHT22;5671;47.936;8.716;2022-10-04T17:38:43;12.20;73.40
11229;DHT22;5671;47.936;8.716;2022-10-04T17:41:18;12.10;73.40
11229;DHT22;5671;47.936;8.716;2022-10-04T17:46:58;11.90;73.70
11229;DHT22;5671;47.936;8.716;2022-10-04T17:49:35;11.70;73.70
11229;DHT22;5671;47.936;8.716;2022-10-04T17:52:25;11.60;74.90
11229;DHT22;5671;47.936;8.716;2022-10-04T17:55:15;11.50;74.50
11229;DHT22;5671;47.936;8.716;2022-10-04T17:57:50;11.50;74.80
11229;DHT22;5671;47.936;8.716;2022-10-04T18:00:20;11.40;74.60
11229;DHT22;5671;47.936;8.716;2022-10-04T18:03:07;11.30;74.20
11229;DHT22;5671;47.936;8.716;2022-10-04T18:05:46;11.20;74.50
11229;DHT22;5671;47.936;8.716;2022-10-04T18:08:24;11.10;74.50
11229;DHT22;5671;47.936;8.716;2022-10-04T18:10:56;11.00;74.20
11229;DHT22;5671;47.936;8.716;2022-10-04T18:13:29;10.90;74.00
11229;DHT22;5671;47.936;8.716;2022-10-04T18:16:03;10.80;74.90
11229;DHT22;5671;47.936;8.716;2022-10-04T18:18:39;10.70;74.30
11229;DHT22;5671;47.936;8.716;2022-10-04T18:21:19;10.60;75.40
11229;DHT22;5671;47.936;8.716;2022-10-04T18:23:58;10.50;75.30
11229;DHT22;5671;47.936;8.716;2022-10-04T18:26:28;10.40;75.20
11229;DHT22;5671;47.936;8.716;2022-10-04T18:28:58;10.40;75.20
11229;DHT22;5671;47.936;8.716;2022-10-04T18:31:30;10.30;75.20
11229;DHT22;5671;47.936;8.716;2022-10-04T18:36:55;10.20;75.30
11229;DHT22;5671;47.936;8.716;2022-10-04T18:39:23;10.10;75.30
11229;DHT22;5671;47.936;8.716;2022-10-04T18:42:00;10.00;75.60
11229;DHT22;5671;47.936;8.716;2022-10-04T18:44:43;9.90;74.90
11229;DHT22;5671;47.936;8.716;2022-10-04T18:47:16;9.80;75.90
11229;DHT22;5671;47.936;8.716;2022-10-04T18:49:52;9.70;76.40
11229;DHT22;5671;47.936;8.716;2022-10-04T18:52:29;9.70;75.60
11229;DHT22;5671;47.936;8.716;2022-10-04T18:55:08;9.60;77.10
11229;DHT22;5671;47.936;8.716;2022-10-04T18:57:46;9.50;76.80
11229;DHT22;5671;47.936;8.716;2022-10-04T19:00:38;9.40;77.20
11229;DHT22;5671;47.936;8.716;2022-10-04T19:03:55;9.30;77.00
11229;DHT22;5671;47.936;8.716;2022-10-04T19:06:48;9.30;76.90
11229;DHT22;5671;47.936;8.716;2022-10-04T19:09:21;9.20;77.20
11229;DHT22;5671;47.936;8.716;2022-10-04T19:11:56;9.10;77.00
11229;DHT22;5671;47.936;8.716;2022-10-04T19:14:30;9.10;76.60
11229;DHT22;5671;47.936;8.716;2022-10-04T19:16:59;9.00;77.30
11229;DHT22;5671;47.936;8.716;2022-10-04T19:19:44;9.00;77.40
11229;DHT22;5671;47.936;8.716;2022-10-04T19:22:39;8.90;77.30
11229;DHT22;5671;47.936;8.716;2022-10-04T19:25:29;8.90;77.00
11229;DHT22;5671;47.936;8.716;2022-10-04T19:28:02;8.80;77.00
11229;DHT22;5671;47.936;8.716;2022-10-04T19:30:41;8.70;76.90
11229;DHT22;5671;47.936;8.716;2022-10-04T19:33:17;8.60;76.80
11229;DHT22;5671;47.936;8.716;2022-10-04T19:35:57;8.60;76.70
11229;DHT22;5671;47.936;8.716;2022-10-04T19:38:46;8.50;76.70
11229;DHT22;5671;47.936;8.716;2022-10-04T19:41:33;8.50;77.00
11229;DHT22;5671;47.936;8.716;2022-10-04T19:44:12;8.40;76.90
11229;DHT22;5671;47.936;8.716;2022-10-04T19:46:48;8.30;76.70
11229;DHT22;5671;47.936;8.716;2022-10-04T19:49:29;8.30;76.90
11229;DHT22;5671;47.936;8.716;2022-10-04T19:52:21;8.20;77.60
11229;DHT22;5671;47.936;8.716;2022-10-04T19:54:54;8.10;77.30
11229;DHT22;5671;47.936;8.716;2022-10-04T19:57:32;8.10;78.30
11229;DHT22;5671;47.936;8.716;2022-10-04T20:00:01;8.00;78.60
11229;DHT22;5671;47.936;8.716;2022-10-04T20:02:28;8.00;77.80
11229;DHT22;5671;47.936;8.716;2022-10-04T20:04:55;8.00;77.90
11229;DHT22;5671;47.936;8.716;2022-10-04T20:07:24;7.90;77.60
11229;DHT22;5671;47.936;8.716;2022-10-04T20:09:55;7.80;77.80
11229;DHT22;5671;47.936;8.716;2022-10-04T20:12:32;7.80;77.80
11229;DHT22;5671;47.936;8.716;2022-10-04T20:15:20;7.70;77.50
11229;DHT22;5671;47.936;8.716;2022-10-04T20:21:14;7.60;78.40